LFROLFRN

Guest
Details From LFRO - Lannion
To LFRN - Rennes St Jacques
Flight Number -
Tags generated
Created
Modified
Stats Distance 81 nm / 149 km
Max Altitude 0 ft / 0 m
Waypoints 3
Social Downloads 0
Likes 0
Share VATSIM

Download

Looking for another format? Having issues loading an existing format? Contact us
Advertisement - Login to hide

Notes

Basic altitude profile: - Ascent Rate: 2500ft/min - Ascent Speed: 250kts - Cruise Altitude: 35000ft - Cruise Speed: 420kts - Descent Rate: 1500ft/min - Descent Speed: 250kts

Route

LFRO REN LFRN

ID Type Via Altitude (ft/m) Position (lat/lon) Dist (leg/tot) Name
O LFRO APT - 0 / 0 48.75431 / -3.47175 - / 0 nm Lannion
REN VOR - 0 / 0 48.06925 / -1.74167 80 / 80 nm RENNES SAINT JACQUES VOR-DME
O LFRN APT - 0 / 0 48.06941 / -1.73459 0 / 80 nm Rennes St Jacques

Altitude Profile

Advertisement - Login to hide

LFRO

Details ICAO LFRO (LAI)
Name Lannion
Region France
Timezone Europe/Paris (UTC+2.0)
Stats Elevation 291 ft / 89 m (AMSL)
Location 48.754300° -3.471750°
Runways 1
Magnetic Variation 1.165° W

METAR

LFRO 211400Z AUTO 02007KT 340V080 9999 FEW014 16/12 Q1027 NOSIG

Decode

TAF

TAF LFRO 211100Z 2112/2212 04010KT CAVOK BECMG 2122/2201 BKN008 TEMPO 2203/2206 03015G25KT 4000 -RADZ OVC003 BECMG 2206/2208 03015G25KT SCT025

Decode

Departure Runways

ID Width Length Bearing (true/mag) Surface Threshold Overrun Markings Lighting
11 148 ft / 45 m 5,547 ft / 1,691 m 107.61° / 108.77° ASPHALT 755 ft / 230 m 0 ft / 0 m PREC-APP EDGE THRESHOLD
29 148 ft / 45 m 5,547 ft / 1,691 m 287.62° / 288.79° ASPHALT 591 ft / 180 m 0 ft / 0 m PREC-APP EDGE THRESHOLD REIL-OMNI

LFRN

Details ICAO LFRN (RNS)
Name Rennes St Jacques
Region France
Timezone Europe/Paris (UTC+2.0)
Stats Elevation 124 ft / 38 m (AMSL)
Location 48.069400° -1.734590°
Runways 2
Magnetic Variation 0.516° W

METAR

LFRN 211400Z AUTO 03008KT CAVOK 20/04 Q1026 NOSIG

Decode

TAF

TAF LFRN 211100Z 2112/2212 VRB03KT CAVOK BECMG 2112/2114 01010KT TEMPO 2122/2204 3000 BR BKN005 BECMG 2202/2204 BKN013 TEMPO 2204/2211 4000 RADZ BKN008 BECMG 2210/2212 01014KT BKN020

Decode

Destination Runways

ID Width Length Bearing (true/mag) Surface Threshold Overrun Markings Lighting
10 148 ft / 45 m 6,895 ft / 2,102 m 100.76° / 101.27° ASPHALT 230 ft / 70 m 0 ft / 0 m PREC-APP EDGE THRESHOLD REIL-OMNI
14 98 ft / 30 m 2,785 ft / 849 m 142.19° / 142.71° ASPHALT 0 ft / 0 m 0 ft / 0 m APP
28 148 ft / 45 m 6,895 ft / 2,102 m 280.78° / 281.29° ASPHALT 0 ft / 0 m 0 ft / 0 m PREC-APP EDGE THRESHOLD ALSF-I
32 98 ft / 30 m 2,785 ft / 849 m 322.20° / 322.72° ASPHALT 0 ft / 0 m 0 ft / 0 m APP

Approach Navaids

Runway Type Ident Frequency Range Bearing (true/mag) Slope Elevation
28 LOC-ILS RS 110.10 MHz 18 nm / 33 km 280.72° / 281.23 ° - 124 ft / 38 m (AMSL)
28 DME RS 110.10 MHz 18 nm / 33 km - - 174 ft / 53 m (AMSL)
28 GS RS 110.10 MHz 10 nm / 19 km 281.54° / 282.05 ° 3.00° 124 ft / 38 m (AMSL)

Popular Alternatives